KAUH

Aurora Municipal - Al Potter Field Airport

Aurora, Nebraska, USA
METAR KAUH 201415Z AUTO 04007KT 10SM CLR 22/18 A2996 RMK AO2 LTG DSNT NW T02220176
Observed Flight Rules
Jul-20 @ 14:15 UTC (14 minutes ago) Visual Flight Rules
Wind Visibility Clouds
40° at 7 knots 10 miles
  • Clear skies
Temperatures Readings
Current 22°C / 72°F
Dewpoint 18°C / 64°F
Humidity 78%
Altimeter 29.96" Hg
Pressure 1015 hPa
Elevation 550
METAR KAUH 201415Z AUTO 04007KT 10SM CLR 22/18 A2996 RMK AO2 LTG DSNT NW T02220176
Observed Flight Rules
Jul-20 @ 14:15 UTC
(14 minutes ago)
VFR
Wind Visibility
40° at 7 knots 10 miles
Clouds
  • Clear skies
Temperature Dewpoint
22°C / 72°F 18°C / 64°F
Humidity Altimeter Pressure
78% 29.96" Hg 1015 hPa